Time;durP1;ratioP1;P1;durP2;ratioP2;P2;SDS_P1;SDS_P2;PMS_P1;PMS_P2;Temp;Humidity;BMP_temperature;BMP_pressure;BME280_temperature;BME280_humidity;BME280_pressure;Samples;Min_cycle;Max_cycle;Signal;HPM_P1;HPM_P2
2022/05/25 00:00:21;;;;;;;1.10;1.10;;;16.70;90.90;;;17.31;nan;100335.28;4980951;28;20649;-67
2022/05/25 00:02:48;;;;;;;0.93;0.93;;;16.70;90.90;;;17.35;nan;100328.72;4972819;28;20650;-68
2022/05/25 00:05:17;;;;;;;1.37;1.27;;;16.70;91.00;;;17.34;nan;100329.69;4971697;28;20663;-69
2022/05/25 00:07:44;;;;;;;1.10;1.10;;;16.70;90.90;;;17.36;nan;100335.63;4986502;28;21183;-68
2022/05/25 00:10:12;;;;;;;3.17;1.07;;;16.80;90.90;;;17.34;nan;100327.03;4977778;28;20634;-68
2022/05/25 00:12:41;;;;;;;1.00;1.00;;;16.70;91.10;;;17.35;nan;100328.72;4972238;28;20642;-68
2022/05/25 00:15:11;;;;;;;0.93;0.93;;;16.70;91.10;;;17.37;nan;100335.47;4970878;28;20670;-68
2022/05/25 00:17:39;;;;;;;0.73;0.73;;;16.80;91.20;;;17.40;nan;100343.06;4953417;28;20659;-68
2022/05/25 00:20:07;;;;;;;1.20;1.10;;;16.80;91.30;;;17.37;nan;100345.19;4969781;28;21207;-68
2022/05/25 00:22:44;;;;;;;0.70;0.70;;;16.80;91.40;;;17.39;nan;100348.50;4990917;28;20625;-67
2022/05/25 00:25:27;;;;;;;0.80;0.80;;;16.80;91.40;;;17.37;nan;100340.75;4990319;28;20646;-69
2022/05/25 00:27:55;;;;;;;0.80;0.80;;;16.80;91.40;;;17.38;nan;100333.63;4988821;28;20634;-68
2022/05/25 00:30:25;;;;;;;0.70;0.70;;;16.80;91.50;;;17.34;nan;100335.78;4981674;28;20645;-67
2022/05/25 00:32:54;;;;;;;0.90;0.90;;;16.70;91.60;;;17.36;nan;100330.34;4986853;28;20646;-68
2022/05/25 00:35:23;;;;;;;10.80;0.70;;;16.70;91.60;;;17.33;nan;100339.44;4989885;28;20662;-67
2022/05/25 00:37:51;;;;;;;3.63;0.90;;;16.70;91.70;;;17.28;nan;100335.59;4973076;28;20674;-68
2022/05/25 00:40:26;;;;;;;0.70;0.70;;;16.70;91.80;;;17.19;nan;100329.47;4972268;28;21000;-68
2022/05/25 00:42:53;;;;;;;0.80;0.80;;;16.60;92.10;;;17.20;nan;100332.94;4971438;28;21210;-67
2022/05/25 00:45:21;;;;;;;1.67;1.10;;;16.60;92.20;;;17.18;nan;100329.63;4985991;28;20670;-69
2022/05/25 00:47:50;;;;;;;1.70;0.70;;;16.60;92.40;;;17.13;nan;100324.84;4989336;28;20629;-68
2022/05/25 00:50:23;;;;;;;0.67;0.67;;;16.50;92.50;;;17.19;nan;100332.09;4990129;28;20637;-69
2022/05/25 00:52:50;;;;;;;1.00;1.00;;;16.60;92.50;;;17.14;nan;100328.31;4972154;28;20662;-69
2022/05/25 00:55:29;;;;;;;0.90;0.90;;;16.60;92.60;;;17.13;nan;100329.28;4973480;28;20654;-69
2022/05/25 00:57:59;;;;;;;1.30;0.90;;;16.50;92.70;;;17.10;nan;100327.78;4983396;28;20677;-67
2022/05/25 01:00:29;;;;;;;1.00;1.00;;;16.50;92.80;;;17.10;nan;100340.16;4989546;28;20699;-67
2022/05/25 01:03:08;;;;;;;0.80;0.80;;;16.50;92.90;;;17.10;nan;100340.97;4983937;28;20639;-68
2022/05/25 01:05:54;;;;;;;0.73;0.73;;;16.50;93.10;;;17.08;nan;100346.41;4964905;28;21521;-68
2022/05/25 01:09:02;;;;;;;1.73;0.70;;;16.50;93.20;;;17.08;nan;100348.22;4988142;28;20646;-66
2022/05/25 01:11:37;;;;;;;1.20;1.20;;;16.50;93.30;;;17.08;nan;100347.41;4971750;28;20649;-68
2022/05/25 01:14:55;;;;;;;0.80;0.80;;;16.50;93.40;;;17.08;nan;100343.78;4992039;28;20657;-67
2022/05/25 01:17:35;;;;;;;0.80;0.80;;;16.50;93.50;;;17.14;nan;100349.41;4966326;28;20678;-70
2022/05/25 01:20:28;;;;;;;4.00;1.00;;;16.50;93.60;;;17.08;nan;100350.84;4992587;28;20654;-68
2022/05/25 01:23:44;;;;;;;1.07;0.97;;;16.50;93.60;;;17.05;nan;100349.38;4973144;28;20639;-67
2022/05/25 01:26:29;;;;;;;1.00;1.00;;;16.50;93.80;;;17.08;nan;100349.03;4956329;28;20646;-68
2022/05/25 01:29:02;;;;;;;1.00;1.00;;;16.50;93.80;;;17.05;nan;100348.53;4974205;28;20627;-67
2022/05/25 01:31:45;;;;;;;0.80;0.80;;;16.50;93.90;;;17.05;nan;100348.53;4982892;28;20649;-68
2022/05/25 01:34:43;;;;;;;2.93;1.10;;;16.50;94.00;;;17.04;nan;100355.63;4992685;28;20688;-67
2022/05/25 01:37:42;;;;;;;0.93;0.93;;;16.50;94.10;;;17.00;nan;100348.19;4991404;28;20681;-68
2022/05/25 01:40:35;;;;;;;1.93;1.03;;;16.40;94.60;;;16.90;nan;100360.66;4974910;28;21025;-68
2022/05/25 01:43:19;;;;;;;1.17;1.10;;;16.30;94.90;;;16.76;nan;100362.06;4974332;28;20645;-67
2022/05/25 01:45:54;;;;;;;0.90;0.90;;;16.20;95.30;;;16.69;nan;100361.06;4974982;28;20662;-67
2022/05/25 01:48:24;;;;;;;3.63;1.40;;;16.10;95.70;;;16.72;nan;100360.72;4975128;28;20634;-67
2022/05/25 01:50:59;;;;;;;1.70;1.43;;;16.10;95.80;;;16.68;nan;100369.09;4991744;28;20642;-68
2022/05/25 01:53:32;;;;;;;1.30;1.27;;;16.10;96.20;;;16.66;nan;100371.03;4975475;28;20622;-67
2022/05/25 01:56:06;;;;;;;1.20;1.20;;;16.10;96.50;;;16.65;nan;100380.75;4971112;28;20654;-67
2022/05/25 01:58:37;;;;;;;1.47;1.40;;;16.10;96.70;;;16.63;nan;100382.72;4976043;28;20610;-67
2022/05/25 02:01:07;;;;;;;1.23;1.13;;;16.10;96.90;;;16.65;nan;100391.28;4993486;28;21179;-68
2022/05/25 02:06:37;;;;;;;1.40;1.30;;;15.90;98.20;;;16.28;nan;100388.88;4985186;28;20720;-67
2022/05/25 02:09:46;;;;;;;2.50;1.67;;;15.80;98.60;;;16.38;nan;100391.41;4991279;28;20642;-68
2022/05/25 02:12:44;;;;;;;1.77;1.67;;;15.80;98.50;;;16.42;nan;100395.38;4975090;28;20696;-68
2022/05/25 02:16:02;;;;;;;1.67;1.57;;;15.90;98.20;;;16.37;nan;100396.81;4991642;28;21041;-66
2022/05/25 02:18:38;;;;;;;1.70;1.60;;;15.80;98.40;;;16.22;nan;100402.66;4931514;29;20681;-69
2022/05/25 02:21:50;;;;;;;2.00;1.90;;;15.60;98.70;;;16.14;nan;100402.56;4957586;28;20631;-67
2022/05/25 02:24:30;;;;;;;1.40;1.40;;;15.60;99.00;;;16.08;nan;100407.59;4975303;28;20709;-68
2022/05/25 02:27:22;;;;;;;2.20;1.90;;;15.50;99.00;;;16.04;nan;100403.59;4972454;28;20643;-68
2022/05/25 02:29:56;;;;;;;3.03;2.20;;;15.50;99.40;;;16.03;nan;100404.59;4954593;28;20632;-69
2022/05/25 02:32:35;;;;;;;2.07;1.97;;;15.40;99.90;;;16.06;nan;100409.53;4965060;28;20634;-69
2022/05/25 02:35:05;;;;;;;1.60;1.50;;;15.50;99.90;;;16.07;nan;100406.78;4974819;28;20642;-68
2022/05/25 02:37:33;;;;;;;6.53;1.27;;;15.50;99.90;;;16.01;nan;100407.41;4964863;28;21258;-70
2022/05/25 02:40:05;;;;;;;2.77;1.73;;;15.40;99.90;;;15.96;nan;100407.00;4970428;28;20626;-67
2022/05/25 02:42:33;;;;;;;2.03;1.67;;;15.40;99.90;;;15.94;nan;100419.47;4973710;28;20649;-69
2022/05/25 02:45:00;;;;;;;2.20;1.90;;;15.40;99.90;;;15.94;nan;100421.28;4956108;28;21436;-67
2022/05/25 02:47:27;;;;;;;1.80;1.70;;;15.40;99.90;;;15.89;nan;100420.88;4954960;28;20638;-67
2022/05/25 02:49:54;;;;;;;1.90;1.80;;;15.30;99.90;;;15.79;nan;100428.88;4971936;28;21008;-67
2022/05/25 02:52:21;;;;;;;2.40;2.00;;;15.20;99.90;;;15.75;nan;100422.25;4989210;28;20643;-67
2022/05/25 02:54:48;;;;;;;2.53;1.73;;;15.20;99.90;;;15.77;nan;100430.81;4990982;28;20650;-67
2022/05/25 02:57:15;;;;;;;1.93;1.83;;;15.20;99.90;;;15.73;nan;100434.72;4990774;28;20674;-68
2022/05/25 02:59:42;;;;;;;2.87;2.27;;;15.20;99.90;;;15.69;nan;100438.63;4990916;28;20644;-67
2022/05/25 03:02:10;;;;;;;1.70;1.60;;;15.10;99.90;;;15.76;nan;100438.88;4986154;28;20687;-67
2022/05/25 03:04:38;;;;;;;1.73;1.63;;;15.20;99.90;;;15.81;nan;100439.22;4991427;28;20634;-67
2022/05/25 03:07:07;;;;;;;2.17;1.80;;;15.30;99.90;;;15.86;nan;100437.81;4957130;28;20642;-67
2022/05/25 03:09:36;;;;;;;2.63;1.70;;;15.30;99.90;;;15.93;nan;100452.03;4973919;28;20646;-67
2022/05/25 03:12:05;;;;;;;1.53;1.43;;;15.40;99.90;;;15.99;nan;100440.91;4970998;28;20626;-68
2022/05/25 03:14:33;;;;;;;2.07;1.53;;;15.40;99.90;;;16.01;nan;100441.59;4990737;28;21238;-68
2022/05/25 03:17:15;;;;;;;2.43;1.37;;;15.50;99.90;;;15.98;nan;100431.38;4973347;28;20693;-68
2022/05/25 03:19:50;;;;;;;1.87;1.63;;;15.40;99.90;;;15.94;nan;100431.81;4990782;28;21198;-67
2022/05/25 03:22:19;;;;;;;1.70;1.60;;;15.40;99.90;;;15.92;nan;100437.22;4990691;28;20649;-69
2022/05/25 03:24:46;;;;;;;1.60;1.50;;;15.30;99.90;;;15.84;nan;100436.31;4991582;28;20633;-67
2022/05/25 03:27:14;;;;;;;1.77;1.67;;;15.30;99.90;;;15.80;nan;100443.66;4990822;28;20638;-68
2022/05/25 03:29:42;;;;;;;1.53;1.53;;;15.20;99.90;;;15.87;nan;100446.53;4991938;28;20630;-69
2022/05/25 03:32:10;;;;;;;1.30;1.30;;;15.30;99.90;;;15.83;nan;100438.09;4979437;28;20680;-68
2022/05/25 03:34:37;;;;;;;1.43;1.33;;;15.30;99.90;;;15.75;nan;100447.72;4990748;28;20629;-68
2022/05/25 03:37:04;;;;;;;2.07;1.47;;;15.20;99.90;;;15.84;nan;100446.84;4992003;28;20650;-67
2022/05/25 03:39:32;;;;;;;2.13;1.60;;;15.20;99.90;;;15.69;nan;100449.16;4972545;28;20638;-69
2022/05/25 03:42:05;;;;;;;1.70;1.60;;;15.10;99.90;;;15.50;nan;100452.69;4990736;28;20642;-67
2022/05/25 03:44:33;;;;;;;1.60;1.47;;;14.90;99.90;;;15.38;nan;100451.19;4974105;28;20623;-67
2022/05/25 03:47:00;;;;;;;1.90;1.57;;;14.80;99.90;;;15.36;nan;100461.03;4990311;28;20662;-68
2022/05/25 03:49:27;;;;;;;3.80;1.63;;;14.80;99.90;;;15.29;nan;100452.06;4992045;28;20625;-70
2022/05/25 03:51:55;;;;;;;3.47;1.60;;;14.70;99.90;;;15.29;nan;100451.25;4990336;28;20645;-67
2022/05/25 03:54:22;;;;;;;1.67;1.57;;;14.70;99.90;;;15.40;nan;100458.94;4989753;28;20720;-67
2022/05/25 03:56:49;;;;;;;2.63;1.90;;;14.90;99.90;;;15.47;nan;100460.88;4973713;28;20650;-68
2022/05/25 03:59:16;;;;;;;1.63;1.50;;;14.90;99.90;;;15.51;nan;100469.28;4989454;28;20650;-67
2022/05/25 04:01:43;;;;;;;2.20;1.73;;;15.00;99.90;;;15.55;nan;100473.28;4984189;28;21237;-66
2022/05/25 04:04:10;;;;;;;1.53;1.40;;;15.00;99.90;;;15.63;nan;100475.19;4982148;28;20647;-68
2022/05/25 04:06:37;;;;;;;3.57;1.70;;;15.10;99.90;;;15.71;nan;100473.50;5012637;23;21251;-65
2022/05/25 04:09:05;;;;;;;2.50;2.10;;;15.20;99.90;;;15.75;nan;100476.66;4997271;28;20645;-69
2022/05/25 04:11:33;;;;;;;2.37;2.17;;;15.20;99.90;;;15.74;nan;100477.66;5000146;28;21127;-66
2022/05/25 04:14:00;;;;;;;2.30;1.57;;;15.20;99.90;;;15.77;nan;100479.97;5014509;28;20639;-66
2022/05/25 04:16:27;;;;;;;2.13;2.00;;;15.20;99.90;;;15.77;nan;100475.53;5000637;28;20666;-66
2022/05/25 04:18:54;;;;;;;2.70;2.00;;;15.20;99.90;;;15.81;nan;100479.53;4990537;28;20684;-67
2022/05/25 04:21:21;;;;;;;2.60;2.40;;;15.20;99.90;;;15.93;nan;100482.78;4993024;28;20630;-65
2022/05/25 04:23:48;;;;;;;2.90;2.17;;;15.40;99.90;;;16.06;nan;100472.72;4992522;28;20695;-68
2022/05/25 04:26:15;;;;;;;1.87;1.77;;;15.60;99.90;;;16.26;nan;100485.59;4995280;28;20803;-66
2022/05/25 04:28:42;;;;;;;1.67;1.57;;;15.80;99.90;;;16.56;nan;100479.16;5002993;28;20634;-69
2022/05/25 04:31:10;;;;;;;2.90;1.80;;;16.10;99.90;;;16.93;nan;100485.03;5004777;28;20649;-66
2022/05/25 04:33:40;;;;;;;1.90;1.80;;;16.50;99.90;;;17.27;nan;100494.81;5001655;28;20716;-69
2022/05/25 04:36:07;;;;;;;2.10;1.90;;;16.90;99.90;;;17.60;nan;100497.47;5007340;28;20646;-67
2022/05/25 04:38:34;;;;;;;1.97;1.87;;;17.20;99.90;;;17.92;nan;100499.41;4996174;28;21356;-66
2022/05/25 04:41:02;;;;;;;1.63;1.50;;;17.50;99.90;;;18.22;nan;100498.81;5009429;28;20640;-69
2022/05/25 04:43:30;;;;;;;1.80;1.70;;;17.90;98.90;;;18.44;nan;100490.28;4990753;28;20999;-66
2022/05/25 04:45:59;;;;;;;1.80;1.70;;;18.10;98.20;;;18.31;nan;100489.94;4989916;28;20653;-67
2022/05/25 04:48:26;;;;;;;2.10;1.90;;;18.10;97.60;;;18.51;nan;100499.22;4992376;28;20699;-66
2022/05/25 04:50:56;;;;;;;2.53;1.90;;;18.10;97.60;;;18.64;nan;100500.53;4992712;28;21265;-66
2022/05/25 04:53:25;;;;;;;4.20;1.37;;;18.30;97.00;;;18.71;nan;100509.47;5004189;28;20650;-66
2022/05/25 04:58:45;;;;;;;1.80;1.70;;;18.40;96.70;;;19.05;nan;100521.50;4993211;28;20711;-68
2022/05/25 05:01:16;;;;;;;1.67;1.57;;;18.70;96.20;;;19.22;nan;100527.59;4975926;28;20625;-67
2022/05/25 05:03:43;;;;;;;2.03;1.80;;;18.90;95.50;;;19.24;nan;100536.19;4981558;28;20629;-68
2022/05/25 05:06:11;;;;;;;1.70;1.63;;;18.90;95.40;;;19.51;nan;100535.00;5012243;28;20657;-66
2022/05/25 05:08:39;;;;;;;1.67;1.50;;;19.10;95.00;;;19.70;nan;100538.06;5008876;28;20630;-66
2022/05/25 05:11:09;;;;;;;1.50;1.40;;;19.40;94.40;;;19.83;nan;100540.19;5012915;28;20625;-67
2022/05/25 05:13:38;;;;;;;1.60;1.50;;;19.40;94.20;;;19.92;nan;100550.56;4986152;28;20642;-66
2022/05/25 05:16:09;;;;;;;1.60;1.50;;;19.60;93.50;;;19.85;nan;100552.25;4993534;28;20662;-66
2022/05/25 05:18:37;;;;;;;1.50;1.40;;;19.50;93.40;;;20.00;nan;100555.81;4997475;28;20661;-67
2022/05/25 05:21:05;;;;;;;1.90;1.33;;;19.60;93.00;;;20.04;nan;100554.47;5004441;28;20650;-66
2022/05/25 05:23:32;;;;;;;1.40;1.30;;;19.70;92.40;;;20.05;nan;100556.16;4995972;28;20639;-69
2022/05/25 05:25:59;;;;;;;1.53;1.40;;;19.70;92.70;;;20.30;nan;100571.94;5013372;28;20641;-67
2022/05/25 05:28:32;;;;;;;1.50;1.40;;;19.90;92.40;;;20.70;nan;100571.66;4995798;28;20644;-66
2022/05/25 05:31:02;;;;;;;1.40;1.30;;;20.40;92.00;;;21.22;nan;100577.91;4995586;28;20668;-66
2022/05/25 05:33:30;;;;;;;1.10;1.10;;;20.90;91.60;;;21.74;nan;100577.06;4990763;28;21013;-66
2022/05/25 05:36:21;;;;;;;4.20;1.50;;;21.50;90.70;;;22.21;nan;100582.81;4992756;28;20661;-67
2022/05/25 05:39:03;;;;;;;1.50;1.50;;;21.90;89.50;;;22.65;nan;100575.56;4984741;28;20681;-67
2022/05/25 05:41:37;;;;;;;1.47;1.37;;;22.50;86.70;;;23.04;nan;100581.22;4979897;28;20672;-69
2022/05/25 05:44:07;;;;;;;1.30;1.30;;;22.80;85.20;;;23.45;nan;100577.88;5013470;28;20638;-67
2022/05/25 05:46:36;;;;;;;2.20;1.50;;;23.20;83.80;;;23.88;nan;100587.38;4992454;28;20676;-66
2022/05/25 05:49:05;;;;;;;3.20;1.47;;;23.60;82.00;;;24.29;nan;100584.72;4993544;28;20629;-67
2022/05/25 05:51:33;;;;;;;2.40;2.00;;;24.00;79.30;;;24.72;nan;100593.25;4980027;28;20646;-67
2022/05/25 05:54:02;;;;;;;4.57;2.43;;;24.40;77.50;;;25.10;nan;100597.00;4981219;28;20628;-66
2022/05/25 05:56:32;;;;;;;2.17;1.97;;;24.80;75.60;;;25.46;nan;100596.59;5003232;28;20683;-67
2022/05/25 05:59:00;;;;;;;2.00;1.77;;;25.20;73.40;;;25.90;nan;100610.91;4993507;28;20661;-66
2022/05/25 06:01:27;;;;;;;1.80;1.67;;;25.70;72.00;;;26.40;nan;100612.00;5009976;28;20644;-66
2022/05/25 06:03:55;;;;;;;1.37;1.37;;;26.20;69.80;;;27.00;nan;100607.94;5006216;28;20621;-68
2022/05/25 06:06:23;;;;;;;1.87;1.77;;;26.80;68.40;;;27.55;nan;100617.81;5032358;28;20660;-66
2022/05/25 06:08:51;;;;;;;2.03;1.60;;;27.30;65.60;;;28.21;nan;100607.19;5006190;28;20638;-67
2022/05/25 06:11:20;;;;;;;2.93;1.80;;;28.00;63.50;;;28.87;nan;100614.34;4994878;28;20646;-67
2022/05/25 06:13:47;;;;;;;2.10;2.00;;;28.70;61.80;;;29.42;nan;100610.38;4987963;28;21054;-68
2022/05/25 06:21:46;;;;;;;2.47;1.87;;;30.40;56.30;;;31.21;nan;100620.72;5008215;28;20617;-69
2022/05/25 06:24:13;;;;;;;2.20;1.80;;;30.90;55.20;;;31.99;nan;100624.09;4986512;28;20631;-66
2022/05/25 06:26:40;;;;;;;3.33;2.53;;;31.80;54.00;;;32.38;nan;100637.50;4993569;28;20658;-66
2022/05/25 06:29:07;;;;;;;2.57;1.70;;;32.30;51.80;;;32.71;nan;100630.06;4994509;28;20664;-70
2022/05/25 06:31:34;;;;;;;3.23;1.67;;;32.40;51.90;;;32.90;nan;100630.53;4992641;28;20646;-66
2022/05/25 06:34:01;;;;;;;1.70;1.60;;;32.80;50.10;;;33.80;nan;100641.22;4992777;28;21050;-68
2022/05/25 06:36:29;;;;;;;1.70;1.60;;;33.60;49.10;;;34.30;nan;100643.41;5001815;28;20668;-67
2022/05/25 06:38:58;;;;;;;1.30;1.30;;;34.00;48.10;;;34.98;nan;100647.63;4990245;28;20976;-66
2022/05/25 06:41:25;;;;;;;1.60;1.50;;;34.70;46.50;;;35.61;nan;100649.00;5003408;28;20641;-67
2022/05/25 06:43:52;;;;;;;2.13;1.13;;;35.30;45.40;;;36.29;nan;100645.53;5011333;28;20622;-67
2022/05/25 06:46:20;;;;;;;1.90;1.07;;;36.00;44.30;;;37.00;nan;100648.69;5004678;28;20658;-67
2022/05/25 06:48:53;;;;;;;3.17;1.10;;;36.70;43.00;;;37.59;nan;100653.09;4991954;28;20653;-69
2022/05/25 06:51:26;;;;;;;1.03;1.03;;;37.20;42.00;;;38.04;nan;100653.41;4991706;28;20627;-64
2022/05/25 06:53:53;;;;;;;1.33;1.17;;;37.70;40.90;;;38.40;nan;100655.72;4996573;28;21229;-67
2022/05/25 06:56:23;;;;;;;1.30;1.30;;;38.10;40.40;;;38.71;nan;100659.63;4990268;28;20743;-67
2022/05/25 06:58:52;;;;;;;2.50;1.10;;;38.40;40.20;;;39.17;nan;100666.00;4978601;28;21281;-67
2022/05/25 07:01:21;;;;;;;1.13;1.03;;;38.80;39.50;;;39.75;nan;100669.09;4994901;28;20631;-67
2022/05/25 07:03:49;;;;;;;1.30;1.20;;;39.40;39.00;;;40.34;nan;100668.16;4980324;28;20630;-67
2022/05/25 07:06:19;;;;;;;1.43;1.20;;;40.00;38.10;;;40.37;nan;100664.00;4987428;28;20668;-65
2022/05/25 07:08:47;;;;;;;1.30;1.30;;;39.90;37.40;;;41.03;nan;100668.81;5008506;28;20626;-68
2022/05/25 07:11:14;;;;;;;1.63;1.50;;;40.50;37.40;;;41.58;nan;100665.47;4983958;28;21059;-69
2022/05/25 07:13:41;;;;;;;1.10;1.10;;;41.10;36.70;;;41.97;nan;100667.44;4998327;28;20640;-67
2022/05/25 07:16:13;;;;;;;1.13;0.77;;;41.60;35.50;;;42.47;nan;100674.19;5005555;28;21064;-67
2022/05/25 07:18:42;;;;;;;0.87;0.80;;;42.00;34.90;;;42.70;nan;100674.06;5008212;28;21018;-68
2022/05/25 07:21:27;;;;;;;1.10;1.00;;;42.30;34.80;;;42.97;nan;100679.22;5005308;28;20765;-67
2022/05/25 07:23:57;;;;;;;2.20;1.50;;;42.50;34.70;;;43.65;nan;100676.38;4997045;28;20625;-68
2022/05/25 07:26:27;;;;;;;2.17;1.97;;;43.20;34.40;;;44.24;nan;100677.22;5005756;28;20727;-66
2022/05/25 07:28:54;;;;;;;2.97;0.97;;;43.80;34.20;;;44.54;nan;100670.56;5003936;28;20638;-68
2022/05/25 07:31:29;;;;;;;1.07;0.80;;;44.20;33.70;;;44.57;nan;100672.66;4983073;28;20650;-65
2022/05/25 07:34:28;;;;;;;0.70;0.70;;;44.40;33.80;;;43.82;nan;100678.25;4989040;28;20716;-66
2022/05/25 07:37:10;;;;;;;1.37;0.90;;;43.50;33.30;;;44.06;nan;100678.47;4970691;28;21030;-67
2022/05/25 07:39:48;;;;;;;0.80;0.80;;;43.60;33.40;;;44.00;nan;100673.47;5009926;28;20669;-68
2022/05/25 07:42:18;;;;;;;1.10;0.90;;;43.80;33.00;;;42.16;nan;100669.94;4984078;28;21016;-66
2022/05/25 07:44:55;;;;;;;0.97;0.97;;;41.90;33.60;;;41.80;nan;100664.63;4985929;28;20650;-67
2022/05/25 07:47:23;;;;;;;1.13;1.03;;;41.40;34.00;;;40.65;nan;100662.88;4992858;28;20657;-67
2022/05/25 07:49:50;;;;;;;0.90;0.90;;;40.70;33.80;;;40.92;nan;100660.06;4993310;28;20637;-68
2022/05/25 07:52:20;;;;;;;0.60;0.60;;;40.40;34.10;;;41.64;nan;100671.63;4990600;28;20635;-67
2022/05/25 07:54:47;;;;;;;0.90;0.90;;;41.20;34.10;;;42.74;nan;100669.53;4986197;28;20780;-67
2022/05/25 07:57:14;;;;;;;2.97;0.93;;;42.20;33.80;;;43.42;nan;100685.16;4991702;28;21042;-64
2022/05/25 07:59:42;;;;;;;1.53;1.43;;;43.00;33.40;;;43.69;nan;100677.31;4980995;28;20676;-65
2022/05/25 08:07:55;;;;;;;0.90;0.90;;;40.70;34.00;;;42.14;nan;100678.47;4993642;28;20638;-66
2022/05/25 08:10:25;;;;;;;1.97;0.80;;;41.50;33.90;;;43.11;nan;100674.34;4987157;28;21205;-66
2022/05/25 08:12:56;;;;;;;1.07;0.90;;;42.60;33.60;;;44.15;nan;100689.44;5007115;28;20618;-66
2022/05/25 08:15:25;;;;;;;0.80;0.80;;;43.80;32.80;;;43.67;nan;100676.03;4982345;28;20641;-66
2022/05/25 08:17:54;;;;;;;0.80;0.80;;;43.40;32.50;;;41.40;nan;100676.66;5009245;28;21062;-66
2022/05/25 08:20:21;;;;;;;0.83;0.83;;;41.20;33.10;;;38.46;nan;100671.66;5003097;28;20634;-64
2022/05/25 08:22:49;;;;;;;0.70;0.70;;;38.30;34.50;;;38.52;nan;100670.53;5010831;28;20636;-65
2022/05/25 08:25:18;;;;;;;0.80;0.80;;;37.90;35.70;;;40.38;nan;100669.16;4979872;28;20779;-66
2022/05/25 08:27:45;;;;;;;2.83;1.00;;;39.70;34.60;;;39.56;nan;100670.28;4994497;28;20806;-66
2022/05/25 08:30:18;;;;;;;0.90;0.90;;;40.00;34.00;;;41.23;nan;100669.16;4994244;28;20704;-65
2022/05/25 08:32:47;;;;;;;1.13;1.03;;;40.70;34.00;;;41.37;nan;100675.34;4994070;28;20638;-65
2022/05/25 08:35:15;;;;;;;1.03;0.80;;;40.90;33.70;;;42.11;nan;100672.81;4994945;28;20653;-67
2022/05/25 08:37:42;;;;;;;0.80;0.80;;;41.70;33.60;;;42.85;nan;100670.81;4993691;28;20642;-66
2022/05/25 08:40:13;;;;;;;1.13;0.90;;;42.50;33.00;;;42.12;nan;100667.03;4993385;28;20673;-66
2022/05/25 08:43:20;;;;;;;0.80;0.80;;;42.00;32.90;;;43.18;nan;100671.94;4998971;28;20630;-67
2022/05/25 08:45:52;;;;;;;0.80;0.80;;;43.00;32.60;;;43.99;nan;100682.84;4974775;28;20653;-65
2022/05/25 08:48:22;;;;;;;2.53;0.77;;;43.60;32.50;;;44.11;nan;100664.50;5001474;28;20641;-65
2022/05/25 08:50:53;;;;;;;0.80;0.80;;;44.00;31.90;;;41.87;nan;100662.22;5014603;28;20617;-66
2022/05/25 08:53:23;;;;;;;0.80;0.80;;;41.60;32.60;;;41.39;nan;100655.88;5005672;28;20688;-66
2022/05/25 08:56:17;;;;;;;1.53;1.10;;;41.00;32.90;;;39.33;nan;100658.38;4977674;28;20650;-66
2022/05/25 08:58:53;;;;;;;1.03;0.83;;;39.00;33.80;;;36.98;nan;100656.31;5003829;28;20665;-66
2022/05/25 09:01:43;;;;;;;0.70;0.70;;;36.20;35.40;;;38.25;nan;100662.16;4977767;28;21188;-63
2022/05/25 09:04:38;;;;;;;1.67;1.00;;;37.50;35.30;;;41.05;nan;100670.13;4986728;28;20660;-67
2022/05/25 09:07:35;;;;;;;0.80;0.80;;;40.30;33.90;;;42.32;nan;100671.06;5012620;28;20696;-65
2022/05/25 09:10:03;;;;;;;0.80;0.80;;;42.00;32.70;;;42.59;nan;100675.50;5003316;28;20645;-66
2022/05/25 09:12:42;;;;;;;0.97;0.97;;;42.70;32.40;;;42.10;nan;100666.53;4995876;28;20617;-65
2022/05/25 09:15:28;;;;;;;1.00;0.87;;;41.60;32.70;;;41.77;nan;100670.75;5002874;28;20634;-67
2022/05/25 09:18:07;;;;;;;0.90;0.87;;;41.40;32.70;;;41.44;nan;100669.44;5006431;28;20637;-66
2022/05/25 09:20:43;;;;;;;1.80;0.87;;;41.00;33.10;;;41.26;nan;100674.00;4986011;28;20645;-66
2022/05/25 09:23:14;;;;;;;1.27;0.80;;;41.00;32.70;;;38.95;nan;100670.47;4993584;28;20612;-66
2022/05/25 09:25:44;;;;;;;1.80;0.70;;;38.70;33.40;;;37.26;nan;100665.59;4995082;28;20662;-66
2022/05/25 09:28:20;;;;;;;1.17;0.97;;;36.60;34.80;;;37.51;nan;100662.66;5013744;28;20978;-66
2022/05/25 09:30:52;;;;;;;1.23;1.23;;;36.90;35.00;;;38.80;nan;100664.13;5011854;28;20617;-65
2022/05/25 09:33:38;;;;;;;0.90;0.90;;;38.10;34.60;;;41.87;nan;100664.19;4992430;28;20644;-66
2022/05/25 09:36:21;;;;;;;1.30;0.87;;;41.40;33.10;;;42.77;nan;100664.19;5012813;28;20660;-66
2022/05/25 09:39:32;;;;;;;0.80;0.80;;;42.90;32.00;;;42.31;nan;100675.78;4989280;28;21060;-66
2022/05/25 09:42:03;;;;;;;1.73;1.00;;;41.90;32.50;;;44.50;nan;100671.56;5007809;28;20629;-68
2022/05/25 09:44:32;;;;;;;1.33;0.90;;;44.10;32.10;;;46.31;nan;100674.78;5012520;28;20747;-66
2022/05/25 09:47:14;;;;;;;1.10;1.10;;;46.00;31.10;;;47.31;nan;100679.25;4999733;28;20654;-66
2022/05/25 09:49:47;;;;;;;0.80;0.80;;;47.30;30.30;;;47.84;nan;100678.69;4975686;28;20613;-67
2022/05/25 09:52:19;;;;;;;0.90;0.90;;;47.70;30.00;;;48.70;nan;100680.25;4983168;28;20640;-66
2022/05/25 09:54:57;;;;;;;1.17;0.90;;;48.60;29.80;;;46.44;nan;100670.84;5007862;28;21213;-65
2022/05/25 09:57:35;;;;;;;0.90;0.90;;;46.90;29.80;;;43.18;nan;100671.94;4995558;28;20735;-67
2022/05/25 10:00:14;;;;;;;1.30;1.10;;;43.40;30.50;;;39.70;nan;100668.38;4978983;28;20674;-66
2022/05/25 10:03:00;;;;;;;0.70;0.70;;;39.80;32.20;;;37.30;nan;100661.22;4983673;28;20672;-66
2022/05/25 10:08:07;;;;;;;0.83;0.70;;;35.00;35.00;;;36.67;nan;100656.78;5026289;28;20652;-66
2022/05/25 10:10:44;;;;;;;0.90;0.90;;;35.90;35.40;;;36.95;nan;100645.19;5030206;28;20647;-67
2022/05/25 10:13:23;;;;;;;1.00;1.00;;;36.60;34.40;;;35.03;nan;100651.19;5013821;28;21058;-66
2022/05/25 10:15:53;;;;;;;1.17;1.00;;;34.70;35.40;;;33.23;nan;100649.22;5010105;28;20636;-67
2022/05/25 10:18:41;;;;;;;0.80;0.60;;;32.60;37.10;;;33.02;nan;100639.31;5011194;28;20641;-71
2022/05/25 10:21:28;;;;;;;0.87;0.80;;;32.30;37.50;;;32.58;nan;100638.59;4986549;28;20650;-67
2022/05/25 10:23:57;;;;;;;0.80;0.80;;;31.90;38.00;;;32.19;nan;100645.13;4993657;28;20645;-65
2022/05/25 10:26:38;;;;;;;1.47;0.83;;;31.40;38.50;;;31.66;nan;100640.34;4991904;28;20657;-66
2022/05/25 10:29:13;;;;;;;0.70;0.70;;;30.90;39.20;;;31.18;nan;100648.16;4993372;28;20633;-65
2022/05/25 10:37:43;;;;;;;0.60;0.60;;;28.30;40.90;;;28.73;nan;100640.56;4980488;28;20653;-66
2022/05/25 10:40:10;;;;;;;0.80;0.80;;;27.90;41.40;;;28.55;nan;100643.28;4994905;28;21039;-64
2022/05/25 10:42:44;;;;;;;1.37;0.60;;;27.70;41.50;;;28.17;nan;100643.56;5012664;28;20617;-64
2022/05/25 10:45:28;;;;;;;0.70;0.70;;;27.40;41.30;;;27.98;nan;100639.25;5012258;28;21069;-65
2022/05/25 10:48:37;;;;;;;2.20;1.10;;;27.20;41.80;;;27.94;nan;100637.19;4995163;28;20653;-66
2022/05/25 10:51:13;;;;;;;4.60;0.80;;;27.30;42.10;;;27.85;nan;100630.50;4989208;28;20688;-65
2022/05/25 10:57:03;;;;;;;1.90;1.80;;;26.90;42.30;;;27.23;nan;100628.78;5011480;28;20653;-67
2022/05/25 11:00:08;;;;;;;0.90;0.90;;;26.50;42.00;;;27.00;nan;100636.56;4993827;28;20677;-63
2022/05/25 11:02:56;;;;;;;0.70;0.70;;;26.20;42.50;;;26.88;nan;100637.25;5010011;28;20640;-66
2022/05/25 11:05:56;;;;;;;5.60;0.87;;;26.10;43.00;;;26.73;nan;100631.38;5011158;28;20625;-67
2022/05/25 11:09:14;;;;;;;0.70;0.70;;;26.00;42.40;;;26.48;nan;100637.66;5009777;28;20629;-66
2022/05/25 11:12:14;;;;;;;0.80;0.80;;;25.70;42.10;;;26.33;nan;100626.41;5009982;28;20637;-63
2022/05/25 11:14:53;;;;;;;0.70;0.70;;;25.50;42.00;;;26.24;nan;100619.69;4985714;28;21183;-63
2022/05/25 11:18:02;;;;;;;1.07;0.70;;;25.50;42.70;;;25.61;nan;100627.41;4995849;28;21400;-67
2022/05/25 11:20:52;;;;;;;1.10;0.80;;;25.00;43.20;;;25.15;nan;100631.94;5004992;28;20676;-64
2022/05/25 11:23:36;;;;;;;0.60;0.60;;;24.50;44.10;;;25.11;nan;100628.84;5011551;28;20633;-65